K-storm — V2DV8 — position and weather

sailwx.info

Track history (hours):
 
Tides and Currents Weather Stations Pressure Air Temp Water Temp Dewpoint Dewpoint Depression Visibility Wind Speed Wind Dir Waves Ship Positions

K-storm

Last reported at 2015-May-01 14:33 UTC. Time now 2015-May-03 17:54 UTC.
Position N 25°36' W 080°01'.

Length 139 m; draft 6.4 m.

Type: Ship. MMSI: 305350000.

Date/timePositionNaut miles runAvg speedWind from/ knotsBaromVisibWave heightAir tempDewpointWater temp
2015-May-01 14:33N 25°36' W 080°01'1515.2
2015-May-01 13:33N 25°51' W 080°02'1515.2
2015-May-01 12:33N 26°06' W 080°05'3 2.2
2015-May-01 11:22N 26°04' W 080°07'0 0.0
2015-May-01 10:31N 26°04' W 080°07'0 0.0
2015-May-01 09:21N 26°04' W 080°07'0 0.0
2015-May-01 08:33N 26°04' W 080°07'0 0.0
2015-May-01 07:29N 26°04' W 080°07'0 0.0
2015-May-01 06:32N 26°04' W 080°07'0 0.0
2015-May-01 05:28N 26°04' W 080°07'0 0.0
2015-May-01 04:22N 26°04' W 080°07'0 0.0
2015-May-01 03:27N 26°04' W 080°07'0 0.0
2015-May-01 02:21N 26°04' W 080°07'0 0.0
2015-May-01 01:33N 26°04' W 080°07'0 0.0
2015-May-01 00:26N 26°04' W 080°07'0 0.0
2015-Apr-30 23:32N 26°04' W 080°07'0 0.0
2015-Apr-30 22:28N 26°04' W 080°07'0 0.0
2015-Apr-30 21:22N 26°04' W 080°07'0 0.0
2015-Apr-30 20:30N 26°04' W 080°07'0 0.0
2015-Apr-30 19:24N 26°04' W 080°07'0 0.0
2015-Apr-30 18:33N 26°04' W 080°07'0 0.0
2015-Apr-30 17:26N 26°04' W 080°07'0 0.0
2015-Apr-30 16:32N 26°04' W 080°07'0 0.0
2015-Apr-30 15:28N 26°04' W 080°07'0 0.1
2015-Apr-30 14:22N 26°04' W 080°07'0 0.0
2015-Apr-30 13:27N 26°04' W 080°07'0 0.0
2015-Apr-30 12:33N 26°04' W 080°07'0 0.0
2015-Apr-30 11:33N 26°04' W 080°07'0 0.0
2015-Apr-30 10:20N 26°04' W 080°07'0 0.0
2015-Apr-30 09:32N 26°04' W 080°07'0 0.0
2015-Apr-30 08:25N 26°04' W 080°07'0 0.0
2015-Apr-30 07:31N 26°04' W 080°07'0 0.0
2015-Apr-30 06:30N 26°04' W 080°07'0 0.0
2015-Apr-30 05:33N 26°04' W 080°07'4 4.1
2015-Apr-30 04:33N 26°05' W 080°02'1616.0
2015-Apr-30 03:34N 25°50' W 079°58'1817.2
2015-Apr-30 02:32N 25°32' W 079°58'  
2015-Apr-24 18:25N 25°20' W 080°02'1112.9
2015-Apr-24 17:33N 25°31' W 080°02'1312.9
2015-Apr-24 16:33N 25°43' W 080°02'1312.6
2015-Apr-24 15:33N 25°56' W 080°02'1010.3
2015-Apr-24 14:33N 26°05' W 080°07'2 1.2
2015-Apr-24 13:21N 26°04' W 080°07'0 0.0
2015-Apr-24 12:32N 26°04' W 080°07'0 0.0
2015-Apr-24 11:26N 26°04' W 080°07'0 0.0
2015-Apr-24 10:32N 26°04' W 080°07'0 0.0
2015-Apr-24 09:25N 26°04' W 080°07'0 0.0
2015-Apr-24 08:31N 26°04' W 080°07'0 0.0
2015-Apr-24 07:24N 26°04' W 080°07'0 0.0
2015-Apr-24 06:33N 26°04' W 080°07'0 0.0
2015-Apr-24 05:32N 26°04' W 080°07'0 0.0
2015-Apr-24 04:23N 26°04' W 080°07'0 0.0
2015-Apr-24 03:16N 26°04' W 080°07'0 0.0
2015-Apr-24 02:25N 26°04' W 080°07'0 0.0
2015-Apr-24 01:31N 26°04' W 080°07'0 0.0
2015-Apr-24 00:31N 26°04' W 080°07'0 0.0
2015-Apr-23 23:33N 26°04' W 080°07'0 0.0
2015-Apr-23 22:29N 26°04' W 080°07'0 0.0
2015-Apr-23 21:23N 26°04' W 080°07'0 0.0
2015-Apr-23 20:28N 26°04' W 080°07'0 0.5
2015-Apr-23 19:33N 26°04' W 080°07'8 7.7
2015-Apr-23 18:33N 26°01' W 079°59'1716.8
2015-Apr-23 17:33N 25°45' W 079°58'  
Track history (hours):
 
Tides and Currents Weather Stations Pressure Air Temp Water Temp Dewpoint Dewpoint Depression Visibility Wind Speed Wind Dir Waves Ship Positions

K-storm

Last reported at 2015-May-01 14:33 UTC. Time now 2015-May-03 17:54 UTC.
Position N 25°36' W 080°01'.

Length 139 m; draft 6.4 m.

Type: Ship. MMSI: 305350000.

Date/timePositionNaut miles runAvg speedWind from/ knotsBaromVisibWave heightAir tempDewpointWater temp
2015-May-01 14:33N 25°36' W 080°01'1515.2
2015-May-01 13:33N 25°51' W 080°02'1515.2
2015-May-01 12:33N 26°06' W 080°05'3 2.2
2015-May-01 11:22N 26°04' W 080°07'0 0.0
2015-May-01 10:31N 26°04' W 080°07'0 0.0
2015-May-01 09:21N 26°04' W 080°07'0 0.0
2015-May-01 08:33N 26°04' W 080°07'0 0.0
2015-May-01 07:29N 26°04' W 080°07'0 0.0
2015-May-01 06:32N 26°04' W 080°07'0 0.0
2015-May-01 05:28N 26°04' W 080°07'0 0.0
2015-May-01 04:22N 26°04' W 080°07'0 0.0
2015-May-01 03:27N 26°04' W 080°07'0 0.0
2015-May-01 02:21N 26°04' W 080°07'0 0.0
2015-May-01 01:33N 26°04' W 080°07'0 0.0
2015-May-01 00:26N 26°04' W 080°07'0 0.0
2015-Apr-30 23:32N 26°04' W 080°07'0 0.0
2015-Apr-30 22:28N 26°04' W 080°07'0 0.0
2015-Apr-30 21:22N 26°04' W 080°07'0 0.0
2015-Apr-30 20:30N 26°04' W 080°07'0 0.0
2015-Apr-30 19:24N 26°04' W 080°07'0 0.0
2015-Apr-30 18:33N 26°04' W 080°07'0 0.0
2015-Apr-30 17:26N 26°04' W 080°07'0 0.0
2015-Apr-30 16:32N 26°04' W 080°07'0 0.0
2015-Apr-30 15:28N 26°04' W 080°07'0 0.1
2015-Apr-30 14:22N 26°04' W 080°07'0 0.0
2015-Apr-30 13:27N 26°04' W 080°07'0 0.0
2015-Apr-30 12:33N 26°04' W 080°07'0 0.0
2015-Apr-30 11:33N 26°04' W 080°07'0 0.0
2015-Apr-30 10:20N 26°04' W 080°07'0 0.0
2015-Apr-30 09:32N 26°04' W 080°07'0 0.0
2015-Apr-30 08:25N 26°04' W 080°07'0 0.0
2015-Apr-30 07:31N 26°04' W 080°07'0 0.0
2015-Apr-30 06:30N 26°04' W 080°07'0 0.0
2015-Apr-30 05:33N 26°04' W 080°07'4 4.1
2015-Apr-30 04:33N 26°05' W 080°02'1616.0
2015-Apr-30 03:34N 25°50' W 079°58'1817.2
2015-Apr-30 02:32N 25°32' W 079°58'  
2015-Apr-24 18:25N 25°20' W 080°02'1112.9
2015-Apr-24 17:33N 25°31' W 080°02'1312.9
2015-Apr-24 16:33N 25°43' W 080°02'1312.6
2015-Apr-24 15:33N 25°56' W 080°02'1010.3
2015-Apr-24 14:33N 26°05' W 080°07'2 1.2
2015-Apr-24 13:21N 26°04' W 080°07'0 0.0
2015-Apr-24 12:32N 26°04' W 080°07'0 0.0
2015-Apr-24 11:26N 26°04' W 080°07'0 0.0
2015-Apr-24 10:32N 26°04' W 080°07'0 0.0
2015-Apr-24 09:25N 26°04' W 080°07'0 0.0
2015-Apr-24 08:31N 26°04' W 080°07'0 0.0
2015-Apr-24 07:24N 26°04' W 080°07'0 0.0
2015-Apr-24 06:33N 26°04' W 080°07'0 0.0
2015-Apr-24 05:32N 26°04' W 080°07'0 0.0
2015-Apr-24 04:23N 26°04' W 080°07'0 0.0
2015-Apr-24 03:16N 26°04' W 080°07'0 0.0
2015-Apr-24 02:25N 26°04' W 080°07'0 0.0
2015-Apr-24 01:31N 26°04' W 080°07'0 0.0
2015-Apr-24 00:31N 26°04' W 080°07'0 0.0
2015-Apr-23 23:33N 26°04' W 080°07'0 0.0
2015-Apr-23 22:29N 26°04' W 080°07'0 0.0
2015-Apr-23 21:23N 26°04' W 080°07'0 0.0
2015-Apr-23 20:28N 26°04' W 080°07'0 0.5
2015-Apr-23 19:33N 26°04' W 080°07'8 7.7
2015-Apr-23 18:33N 26°01' W 079°59'1716.8
2015-Apr-23 17:33N 25°45' W 079°58'  

Dump ship's entire track history